Lutherville, Maryland
Current Conditions -  °F | °C
As of 2:55 PM on Wednesday 17 Dec 2014 (Local Time) from KMTN Reporting Station
Scattered Clouds Scattered Clouds  
Wind Chill: 52°   Ceiling: Unl
Heat Index: 52°   Visibility: 10mi
Dew Point: 34°   Wind: 20mph
Humidity: 50%   Direction: 280°W
Pressure: 29.97"   Gusts: 28mph
Location:  39.4211°N, 76.6266°W
Report Text: KMTN 171955Z 28017G24KT 10SM SCT050 11/01 A2997
Loading
Personal Weather Stations






























Interactive Weather Map New forecast layout! Learn more

10-Day Weather Forecast

Advertisements
Track Severe Weather on mobile